createdAt,value
2023-04-15T00:01:20.020Z,5.76
2023-04-15T00:04:05.943Z,5.80
2023-04-15T00:06:54.603Z,5.82
2023-04-15T00:09:40.631Z,5.85
2023-04-15T00:12:26.654Z,5.85
2023-04-15T00:15:12.771Z,5.88
2023-04-15T00:17:59.233Z,5.89
2023-04-15T00:20:45.023Z,5.92
2023-04-15T00:23:32.517Z,5.94
2023-04-15T00:26:19.213Z,5.96
2023-04-15T00:29:06.871Z,6.00
2023-04-15T00:31:53.097Z,6.01
2023-04-15T00:34:38.942Z,6.00
2023-04-15T00:37:24.804Z,6.02
2023-04-15T00:40:13.613Z,6.02
2023-04-15T00:43:00.100Z,6.02
2023-04-15T00:45:47.037Z,6.02
2023-04-15T00:48:33.239Z,6.05
2023-04-15T00:51:19.042Z,6.04
2023-04-15T00:54:05.315Z,6.04
2023-04-15T00:56:52.569Z,6.05
2023-04-15T00:59:38.271Z,6.06
2023-04-15T01:02:24.391Z,6.06
2023-04-15T01:05:10.733Z,6.05
2023-04-15T01:07:57.172Z,6.07
2023-04-15T01:10:43.037Z,6.06
2023-04-15T01:13:30.001Z,6.05
2023-04-15T01:16:16.721Z,6.04
2023-04-15T01:19:02.681Z,6.05
2023-04-15T01:21:48.909Z,6.05
2023-04-15T01:24:35.048Z,6.05
2023-04-15T01:27:22.243Z,6.09
2023-04-15T01:30:09.123Z,6.07
2023-04-15T01:32:54.972Z,6.08
2023-04-15T01:35:41.418Z,6.09
2023-04-15T01:38:27.708Z,6.11
2023-04-15T01:41:14.281Z,6.12
2023-04-15T01:44:01.644Z,6.13
2023-04-15T01:46:48.263Z,6.13
2023-04-15T01:49:34.320Z,6.13
2023-04-15T01:52:20.582Z,6.16
2023-04-15T01:55:07.967Z,6.15
2023-04-15T01:57:53.888Z,6.19
2023-04-15T02:00:42.742Z,6.19
2023-04-15T02:03:29.600Z,6.21
2023-04-15T02:06:15.820Z,6.25
2023-04-15T02:09:02.090Z,6.25
2023-04-15T02:11:47.925Z,6.28
2023-04-15T02:14:34.104Z,6.30
2023-04-15T02:17:21.665Z,6.31
2023-04-15T02:20:08.502Z,6.33
2023-04-15T02:22:54.209Z,6.36
2023-04-15T02:25:40.044Z,6.39
2023-04-15T02:28:27.301Z,6.41
2023-04-15T02:31:13.059Z,6.41
2023-04-15T02:34:00.269Z,6.44
2023-04-15T02:36:47.393Z,6.46
2023-04-15T02:39:34.526Z,6.48
2023-04-15T02:42:21.559Z,6.48
2023-04-15T02:45:09.300Z,6.48
2023-04-15T02:47:55.303Z,6.54
2023-04-15T02:50:42.806Z,6.52
2023-04-15T02:53:31.327Z,6.53
2023-04-15T02:56:17.954Z,6.55
2023-04-15T02:59:04.672Z,6.58
2023-04-15T03:01:50.892Z,6.61
2023-04-15T03:04:36.757Z,6.63
2023-04-15T03:07:25.069Z,6.62
2023-04-15T03:10:12.484Z,6.63
2023-04-15T03:12:59.257Z,6.63
2023-04-15T03:15:46.195Z,6.68
2023-04-15T03:18:32.657Z,6.68
2023-04-15T03:21:21.394Z,6.71
2023-04-15T03:24:09.391Z,6.70
2023-04-15T03:26:55.182Z,6.71
2023-04-15T03:29:42.700Z,6.72
2023-04-15T03:32:28.861Z,6.72
2023-04-15T03:35:15.735Z,6.72
2023-04-15T03:38:01.563Z,6.71
2023-04-15T03:40:48.815Z,6.74
2023-04-15T03:43:34.854Z,6.72
2023-04-15T03:46:20.786Z,6.75
2023-04-15T03:49:07.421Z,6.76
2023-04-15T03:51:53.267Z,6.71
2023-04-15T03:54:39.029Z,6.77
2023-04-15T03:57:26.382Z,6.76
2023-04-15T04:00:12.702Z,6.77
2023-04-15T04:02:58.848Z,6.80
2023-04-15T04:05:45.040Z,6.82
2023-04-15T04:08:31.098Z,6.79
2023-04-15T04:11:17.180Z,6.81
2023-04-15T04:14:04.397Z,6.81
2023-04-15T04:16:50.231Z,6.81
2023-04-15T04:19:36.021Z,6.81
2023-04-15T04:22:23.185Z,6.83
2023-04-15T04:25:10.030Z,6.86
2023-04-15T04:27:55.685Z,6.86
2023-04-15T04:30:42.952Z,6.88
2023-04-15T04:33:28.809Z,6.85
2023-04-15T04:36:14.532Z,6.86
2023-04-15T04:39:01.478Z,6.88
2023-04-15T04:41:47.498Z,6.88
2023-04-15T04:44:33.248Z,6.89
2023-04-15T04:47:20.663Z,6.87
2023-04-15T04:50:07.682Z,6.80
2023-04-15T04:52:53.560Z,6.88
2023-04-15T04:55:39.359Z,6.85
2023-04-15T04:58:24.987Z,6.88
2023-04-15T05:01:10.948Z,6.84
2023-04-15T05:03:58.699Z,6.85
2023-04-15T05:06:44.822Z,6.86
2023-04-15T05:09:32.452Z,6.82
2023-04-15T05:12:18.544Z,6.82
2023-04-15T05:15:04.330Z,6.83
2023-04-15T05:17:50.141Z,6.84
2023-04-15T05:20:37.852Z,6.85
2023-04-15T05:23:23.641Z,6.86
2023-04-15T05:26:09.618Z,6.88
2023-04-15T05:28:55.452Z,6.88
2023-04-15T05:31:42.246Z,6.89
2023-04-15T05:34:28.433Z,6.82
2023-04-15T05:37:15.542Z,6.88
2023-04-15T05:40:01.510Z,6.90
2023-04-15T05:42:47.763Z,6.90
2023-04-15T05:45:33.638Z,6.90
2023-04-15T05:48:19.609Z,6.96
2023-04-15T05:51:05.764Z,6.98
2023-04-15T05:53:53.138Z,7.00
2023-04-15T05:56:38.973Z,6.97
2023-04-15T05:59:24.787Z,6.95
2023-04-15T06:02:10.854Z,6.98
2023-04-15T06:04:57.549Z,7.02
2023-04-15T06:07:44.069Z,7.01
2023-04-15T06:10:36.341Z,7.06
2023-04-15T06:13:22.380Z,7.05
2023-04-15T06:16:08.457Z,7.07
2023-04-15T06:18:54.217Z,7.10
2023-04-15T06:21:40.445Z,7.10
2023-04-15T06:24:26.541Z,7.12
2023-04-15T06:27:13.552Z,7.08
2023-04-15T06:29:59.309Z,7.12
2023-04-15T06:32:46.291Z,7.14
2023-04-15T06:35:32.110Z,7.15
2023-04-15T06:38:18.024Z,7.13
2023-04-15T06:41:03.975Z,7.16
2023-04-15T06:43:51.367Z,7.18
2023-04-15T06:46:37.556Z,7.17
2023-04-15T06:49:23.391Z,7.23
2023-04-15T06:52:09.912Z,7.25
2023-04-15T06:54:56.147Z,7.28
2023-04-15T06:57:42.010Z,7.27
2023-04-15T07:00:29.527Z,7.31
2023-04-15T07:03:16.267Z,7.27
2023-04-15T07:06:06.270Z,7.28
2023-04-15T07:08:52.377Z,7.23
2023-04-15T07:11:38.257Z,7.30
2023-04-15T07:14:24.049Z,7.29
2023-04-15T07:17:11.377Z,7.29
2023-04-15T07:19:57.694Z,7.32
2023-04-15T07:22:43.550Z,7.31
2023-04-15T07:25:29.688Z,7.18
2023-04-15T07:28:15.582Z,7.25
2023-04-15T07:31:02.018Z,7.30
2023-04-15T07:33:49.437Z,7.32
2023-04-15T07:36:35.448Z,7.34
2023-04-15T07:39:21.596Z,7.35
2023-04-15T07:42:07.511Z,7.39
2023-04-15T07:44:53.346Z,7.38
2023-04-15T07:47:40.526Z,7.39
2023-04-15T07:50:27.521Z,7.40
2023-04-15T07:53:14.535Z,7.47
2023-04-15T07:56:00.565Z,7.49
2023-04-15T07:58:46.323Z,7.57
2023-04-15T08:01:32.875Z,7.57
2023-04-15T08:04:19.089Z,7.61
2023-04-15T08:07:07.060Z,7.66
2023-04-15T08:09:52.964Z,7.69
2023-04-15T08:12:38.599Z,7.72
2023-04-15T08:15:24.637Z,7.72
2023-04-15T08:18:10.864Z,7.78
2023-04-15T08:20:56.887Z,7.82
2023-04-15T08:23:45.028Z,7.79
2023-04-15T08:26:30.733Z,7.86
2023-04-15T08:29:16.726Z,7.88
2023-04-15T08:32:03.096Z,7.93
2023-04-15T08:34:49.088Z,7.96
2023-04-15T08:37:34.957Z,8.00
2023-04-15T08:40:22.115Z,8.01
2023-04-15T08:43:07.909Z,8.02
2023-04-15T08:45:53.994Z,8.01
2023-04-15T08:48:40.577Z,8.01
2023-04-15T08:51:26.575Z,8.09
2023-04-15T08:54:12.634Z,8.09
2023-04-15T08:56:59.845Z,8.13
2023-04-15T08:59:45.618Z,8.10
2023-04-15T09:02:31.587Z,8.08
2023-04-15T09:05:17.718Z,8.10
2023-04-15T09:08:03.894Z,8.12
2023-04-15T09:10:49.841Z,8.12
2023-04-15T09:13:36.995Z,8.13
2023-04-15T09:16:23.022Z,8.17
2023-04-15T09:19:21.508Z,8.19
2023-04-15T09:22:07.585Z,8.19
2023-04-15T09:24:53.644Z,8.22
2023-04-15T09:27:39.412Z,8.23
2023-04-15T09:30:26.586Z,8.26
2023-04-15T09:33:12.686Z,8.29
2023-04-15T09:35:59.815Z,8.31
2023-04-15T09:38:54.939Z,8.36
2023-04-15T09:41:41.511Z,8.39
2023-04-15T09:44:27.869Z,8.34
2023-04-15T09:47:29.146Z,8.40
2023-04-15T09:50:16.555Z,8.43
2023-04-15T09:53:02.527Z,8.42
2023-04-15T09:55:50.784Z,8.37
2023-04-15T09:58:38.627Z,8.36
2023-04-15T10:01:24.877Z,8.45
2023-04-15T10:04:11.029Z,8.46
2023-04-15T10:06:58.425Z,8.44
2023-04-15T10:09:45.693Z,8.48
2023-04-15T10:12:33.454Z,8.43
2023-04-15T10:15:19.398Z,8.48
2023-04-15T10:18:05.462Z,8.48
2023-04-15T10:20:51.699Z,8.46
2023-04-15T10:23:38.973Z,8.52
2023-04-15T10:26:24.908Z,8.52
2023-04-15T10:29:10.793Z,8.59
2023-04-15T10:31:56.786Z,8.62
2023-04-15T10:34:42.864Z,8.65
2023-04-15T10:37:34.703Z,8.65
2023-04-15T10:40:31.325Z,8.69
2023-04-15T10:43:26.262Z,8.77
2023-04-15T10:46:12.545Z,8.74
2023-04-15T10:48:58.885Z,8.78
2023-04-15T10:51:45.378Z,8.79
2023-04-15T10:54:32.338Z,8.80
2023-04-15T10:57:23.980Z,8.81
2023-04-15T11:00:13.908Z,8.82
2023-04-15T11:03:00.386Z,8.86
2023-04-15T11:05:49.955Z,8.90
2023-04-15T11:08:57.567Z,8.93
2023-04-15T11:12:02.499Z,8.96
2023-04-15T11:14:49.603Z,8.97
2023-04-15T11:17:35.393Z,9.02
2023-04-15T11:20:21.193Z,9.06
2023-04-15T11:23:08.213Z,9.07
2023-04-15T11:26:01.235Z,9.12
2023-04-15T11:28:47.572Z,9.14
2023-04-15T11:31:34.856Z,9.09
2023-04-15T11:34:23.648Z,9.16
2023-04-15T11:37:10.162Z,9.18
2023-04-15T11:39:56.535Z,9.24
2023-04-15T11:42:49.464Z,9.27
2023-04-15T11:45:36.205Z,9.33
2023-04-15T11:48:24.395Z,9.34
2023-04-15T11:51:10.161Z,9.41
2023-04-15T11:53:56.854Z,9.44
2023-04-15T11:56:42.706Z,9.47
2023-04-15T11:59:38.981Z,9.49
2023-04-15T12:02:31.960Z,9.58
2023-04-15T12:05:19.392Z,9.60
2023-04-15T12:08:05.415Z,9.64
2023-04-15T12:10:51.262Z,9.67
2023-04-15T12:13:37.118Z,9.65
2023-04-15T12:16:23.048Z,9.76
2023-04-15T12:19:10.381Z,9.79
2023-04-15T12:22:00.666Z,9.83
2023-04-15T12:24:48.477Z,9.89
2023-04-15T12:27:36.156Z,9.91
2023-04-15T12:30:22.012Z,9.89
2023-04-15T12:33:07.779Z,9.98
2023-04-15T12:35:53.483Z,9.99
2023-04-15T12:38:41.225Z,10.04
2023-04-15T12:41:27.428Z,10.05
2023-04-15T12:44:13.278Z,9.95
2023-04-15T12:46:59.902Z,9.98
2023-04-15T12:49:47.178Z,10.05
2023-04-15T12:52:33.474Z,10.00
2023-04-15T12:55:20.879Z,10.07
2023-04-15T12:58:06.981Z,10.07
2023-04-15T13:00:52.768Z,10.02
2023-04-15T13:03:38.823Z,10.05
2023-04-15T13:06:25.104Z,10.08
2023-04-15T13:09:11.231Z,10.12
2023-04-15T13:11:59.151Z,10.20
2023-04-15T13:14:44.930Z,10.27
2023-04-15T13:17:30.615Z,10.28
2023-04-15T13:20:16.428Z,10.35
2023-04-15T13:23:02.110Z,10.36
2023-04-15T13:25:48.029Z,10.40
2023-04-15T13:28:35.460Z,10.42
2023-04-15T13:31:21.758Z,10.46
2023-04-15T13:34:08.129Z,10.51
2023-04-15T13:36:54.484Z,10.57
2023-04-15T13:39:40.419Z,10.63
2023-04-15T13:42:27.283Z,10.67
2023-04-15T13:45:14.341Z,10.69
2023-04-15T13:48:00.214Z,10.70
2023-04-15T13:50:46.723Z,10.67
2023-04-15T13:53:38.809Z,10.72
2023-04-15T13:56:25.942Z,10.72
2023-04-15T13:59:12.049Z,10.76
2023-04-15T14:01:59.403Z,10.86
2023-04-15T14:04:45.648Z,11.01
2023-04-15T14:07:31.728Z,11.15
2023-04-15T14:10:17.574Z,11.27
2023-04-15T14:13:03.250Z,11.48
2023-04-15T14:15:49.079Z,11.63
2023-04-15T14:18:37.253Z,11.79
2023-04-15T14:21:23.266Z,11.92
2023-04-15T14:24:09.672Z,12.05
2023-04-15T14:26:56.761Z,12.22
2023-04-15T14:29:42.840Z,12.29
2023-04-15T14:32:28.907Z,12.47
2023-04-15T14:35:16.238Z,12.59
2023-04-15T14:38:02.007Z,12.68
2023-04-15T14:40:48.006Z,12.73
2023-04-15T14:43:34.084Z,12.88
2023-04-15T14:46:20.368Z,12.94
2023-04-15T14:49:06.840Z,12.88
2023-04-15T14:51:54.431Z,13.00
2023-04-15T14:54:40.924Z,13.05
2023-04-15T14:57:26.889Z,13.14
2023-04-15T15:00:15.860Z,13.18
2023-04-15T15:03:02.611Z,13.18
2023-04-15T15:05:48.465Z,13.26
2023-04-15T15:08:36.821Z,13.32
2023-04-15T15:11:23.024Z,13.41
2023-04-15T15:14:08.776Z,13.41
2023-04-15T15:16:54.516Z,13.36
2023-04-15T15:19:40.245Z,13.41
2023-04-15T15:22:26.541Z,13.47
2023-04-15T15:25:13.628Z,13.51
2023-04-15T15:27:59.402Z,13.51
2023-04-15T15:30:45.954Z,13.49
2023-04-15T15:33:32.679Z,13.48
2023-04-15T15:36:18.435Z,13.50
2023-04-15T15:39:05.315Z,13.56
2023-04-15T15:41:52.774Z,13.57
2023-04-15T15:44:38.784Z,13.54
2023-04-15T15:47:26.453Z,13.51
2023-04-15T15:50:13.530Z,13.56
2023-04-15T15:52:59.784Z,13.56
2023-04-15T15:55:45.802Z,13.53
2023-04-15T15:58:33.072Z,13.45
2023-04-15T16:01:19.171Z,13.46
2023-04-15T16:04:05.362Z,13.41
2023-04-15T16:06:51.154Z,13.43
2023-04-15T16:09:36.819Z,13.40
2023-04-15T16:12:22.623Z,13.31
2023-04-15T16:15:10.760Z,13.25
2023-04-15T16:17:56.999Z,13.23
2023-04-15T16:20:43.300Z,13.12
2023-04-15T16:23:29.221Z,13.00
2023-04-15T16:26:15.362Z,12.98
2023-04-15T16:29:01.860Z,12.98
2023-04-15T16:31:49.144Z,12.99
2023-04-15T16:34:38.962Z,12.98
2023-04-15T16:37:24.725Z,12.97
2023-04-15T16:40:11.141Z,12.94
2023-04-15T16:42:57.289Z,12.75
2023-04-15T16:45:44.430Z,12.75
2023-04-15T16:48:31.939Z,12.76
2023-04-15T16:51:17.724Z,12.68
2023-04-15T16:54:03.509Z,12.65
2023-04-15T16:56:49.361Z,12.62
2023-04-15T16:59:35.351Z,12.54
2023-04-15T17:02:21.113Z,12.47
2023-04-15T17:05:09.478Z,12.45
2023-04-15T17:07:55.395Z,12.32
2023-04-15T17:10:41.492Z,12.34
2023-04-15T17:13:27.326Z,12.28
2023-04-15T17:16:13.162Z,12.28
2023-04-15T17:18:58.989Z,12.24
2023-04-15T17:21:46.006Z,12.18
2023-04-15T17:24:32.100Z,12.18
2023-04-15T17:27:18.071Z,12.17
2023-04-15T17:30:04.023Z,12.09
2023-04-15T17:32:49.758Z,12.02
2023-04-15T17:35:35.584Z,12.02
2023-04-15T17:38:22.841Z,11.99
2023-04-15T17:41:08.702Z,11.95
2023-04-15T17:43:54.800Z,11.92
2023-04-15T17:46:40.795Z,11.90
2023-04-15T17:49:26.538Z,11.87
2023-04-15T17:52:12.364Z,11.87
2023-04-15T17:54:59.512Z,11.79
2023-04-15T17:57:45.947Z,11.76
2023-04-15T18:00:33.719Z,11.77
2023-04-15T18:03:19.703Z,11.76
2023-04-15T18:06:06.243Z,11.74
2023-04-15T18:08:52.323Z,11.72
2023-04-15T18:11:40.832Z,11.67
2023-04-15T18:14:34.287Z,11.63
2023-04-15T18:17:21.196Z,11.61
2023-04-15T18:20:07.865Z,11.57
2023-04-15T18:22:53.842Z,11.48
2023-04-15T18:25:39.762Z,11.39
2023-04-15T18:28:27.594Z,11.39
2023-04-15T18:31:14.263Z,11.40
2023-04-15T18:34:00.409Z,11.37
2023-04-15T18:36:46.780Z,11.30
2023-04-15T18:39:33.177Z,11.30
2023-04-15T18:42:19.830Z,11.25
2023-04-15T18:45:08.184Z,11.23
2023-04-15T18:47:54.776Z,11.16
2023-04-15T18:50:40.791Z,11.14
2023-04-15T18:53:27.895Z,11.13
2023-04-15T18:56:14.061Z,11.02
2023-04-15T18:59:08.630Z,11.05
2023-04-15T19:02:08.930Z,10.95
2023-04-15T19:04:54.960Z,10.98
2023-04-15T19:07:41.096Z,10.96
2023-04-15T19:10:27.973Z,10.94
2023-04-15T19:13:13.862Z,10.92
2023-04-15T19:15:59.973Z,10.90
2023-04-15T19:18:47.268Z,10.86
2023-04-15T19:21:33.441Z,10.81
2023-04-15T19:24:19.497Z,10.80
2023-04-15T19:27:05.755Z,10.76
2023-04-15T19:29:51.935Z,10.73
2023-04-15T19:32:37.909Z,10.72
2023-04-15T19:35:25.376Z,10.69
2023-04-15T19:38:11.506Z,10.68
2023-04-15T19:40:57.177Z,10.64
2023-04-15T19:43:42.909Z,10.57
2023-04-15T19:46:28.862Z,10.60
2023-04-15T19:49:15.302Z,10.57
2023-04-15T19:52:04.088Z,10.56
2023-04-15T19:54:50.292Z,10.53
2023-04-15T19:57:36.406Z,10.55
2023-04-15T20:00:22.655Z,10.47
2023-04-15T20:03:08.428Z,10.45
2023-04-15T20:05:54.701Z,10.44
2023-04-15T20:08:42.090Z,10.41
2023-04-15T20:12:45.969Z,10.37
2023-04-15T20:14:35.779Z,10.28
2023-04-15T20:17:21.685Z,10.21
2023-04-15T20:20:08.170Z,10.23
2023-04-15T20:22:54.252Z,10.20
2023-04-15T20:25:42.242Z,10.19
2023-04-15T20:28:28.564Z,10.14
2023-04-15T20:31:14.735Z,10.14
2023-04-15T20:34:00.523Z,10.10
2023-04-15T20:36:46.401Z,10.03
2023-04-15T20:39:32.229Z,9.98
2023-04-15T20:42:19.670Z,9.96
2023-04-15T20:45:06.950Z,9.93
2023-04-15T20:47:54.604Z,9.85
2023-04-15T20:50:41.669Z,9.81
2023-04-15T20:53:27.506Z,9.74
2023-04-15T20:56:13.702Z,9.69
2023-04-15T20:59:01.503Z,9.57
2023-04-15T21:01:47.491Z,9.55
2023-04-15T21:04:33.557Z,9.48
2023-04-15T21:07:19.221Z,9.46
2023-04-15T21:10:05.082Z,9.46
2023-04-15T21:12:50.804Z,9.43
2023-04-15T21:15:38.302Z,9.41
2023-04-15T21:18:35.653Z,9.38
2023-04-15T21:21:26.055Z,9.34
2023-04-15T21:24:19.772Z,9.33
2023-04-15T21:27:12.068Z,9.32
2023-04-15T21:30:03.105Z,9.28
2023-04-15T21:32:53.587Z,9.23
2023-04-15T21:35:50.021Z,9.18
2023-04-15T21:38:36.191Z,9.21
2023-04-15T21:41:22.005Z,9.17
2023-04-15T21:44:15.123Z,9.19
2023-04-15T21:47:06.281Z,9.18
2023-04-15T21:49:56.395Z,9.16
2023-04-15T21:52:45.031Z,9.14
2023-04-15T21:55:33.082Z,9.14
2023-04-15T21:58:21.561Z,9.12
2023-04-15T22:01:09.764Z,9.11
2023-04-15T22:03:58.700Z,9.04
2023-04-15T22:06:46.520Z,9.07
2023-04-15T22:09:36.809Z,9.07
2023-04-15T22:12:27.570Z,9.06
2023-04-15T22:15:14.388Z,9.05
2023-04-15T22:18:00.104Z,9.06
2023-04-15T22:20:50.939Z,9.04
2023-04-15T22:23:44.661Z,9.02
2023-04-15T22:26:36.265Z,9.03
2023-04-15T22:29:29.857Z,9.02
2023-04-15T22:32:15.678Z,9.04
2023-04-15T22:35:02.025Z,8.99
2023-04-15T22:37:48.197Z,8.98
2023-04-15T22:40:35.566Z,9.02
2023-04-15T22:43:21.519Z,9.00
2023-04-15T22:46:07.597Z,8.98
2023-04-15T22:48:54.071Z,8.96
2023-04-15T22:51:40.259Z,8.98
2023-04-15T22:54:26.290Z,8.98
2023-04-15T22:57:13.412Z,8.96
2023-04-15T22:59:59.400Z,8.98
2023-04-15T23:02:45.525Z,8.96
2023-04-15T23:05:31.526Z,8.97
2023-04-15T23:08:17.786Z,8.96
2023-04-15T23:11:03.607Z,8.94
2023-04-15T23:13:50.915Z,8.93
2023-04-15T23:16:36.818Z,8.93
2023-04-15T23:19:22.692Z,8.96
2023-04-15T23:22:10.449Z,8.96
2023-04-15T23:24:56.672Z,8.97
2023-04-15T23:27:42.289Z,8.95
2023-04-15T23:30:29.458Z,8.95
2023-04-15T23:33:15.272Z,8.96
2023-04-15T23:36:01.234Z,8.94
2023-04-15T23:38:47.791Z,8.96
2023-04-15T23:41:33.637Z,8.94
2023-04-15T23:44:19.446Z,8.90
2023-04-15T23:47:06.795Z,8.93
2023-04-15T23:49:52.850Z,8.93
2023-04-15T23:52:38.725Z,8.90
2023-04-15T23:55:24.553Z,8.93
2023-04-15T23:58:10.746Z,8.91
